sensor_id;sensor_type;location;lat;lon;timestamp;P1;durP1;ratioP1;P2;durP2;ratioP2
56045;SDS011;41913;51.030;3.706;2022-07-23T00:02:15;10.32;;;5.95;;
56045;SDS011;41913;51.030;3.706;2022-07-23T00:04:40;5.45;;;4.93;;
56045;SDS011;41913;51.030;3.706;2022-07-23T00:07:07;6.07;;;5.43;;
56045;SDS011;41913;51.030;3.706;2022-07-23T00:09:33;10.02;;;5.60;;
56045;SDS011;41913;51.030;3.706;2022-07-23T00:11:58;6.55;;;4.57;;
56045;SDS011;41913;51.030;3.706;2022-07-23T00:14:24;8.38;;;5.70;;
56045;SDS011;41913;51.030;3.706;2022-07-23T00:16:50;5.93;;;5.15;;
56045;SDS011;41913;51.030;3.706;2022-07-23T00:19:16;7.32;;;4.97;;
56045;SDS011;41913;51.030;3.706;2022-07-23T00:21:41;9.55;;;5.00;;
56045;SDS011;41913;51.030;3.706;2022-07-23T00:24:07;6.53;;;4.65;;
56045;SDS011;41913;51.030;3.706;2022-07-23T00:26:32;9.02;;;5.35;;
56045;SDS011;41913;51.030;3.706;2022-07-23T00:28:58;7.07;;;5.05;;
56045;SDS011;41913;51.030;3.706;2022-07-23T00:31:24;5.53;;;4.78;;
56045;SDS011;41913;51.030;3.706;2022-07-23T00:33:50;15.75;;;5.53;;
56045;SDS011;41913;51.030;3.706;2022-07-23T00:36:15;7.47;;;5.10;;
56045;SDS011;41913;51.030;3.706;2022-07-23T00:38:41;9.88;;;5.20;;
56045;SDS011;41913;51.030;3.706;2022-07-23T00:41:07;9.25;;;4.35;;
56045;SDS011;41913;51.030;3.706;2022-07-23T00:43:35;6.10;;;5.28;;
56045;SDS011;41913;51.030;3.706;2022-07-23T00:46:04;8.55;;;5.25;;
56045;SDS011;41913;51.030;3.706;2022-07-23T00:48:32;9.10;;;5.07;;
56045;SDS011;41913;51.030;3.706;2022-07-23T00:50:57;6.13;;;4.85;;
56045;SDS011;41913;51.030;3.706;2022-07-23T00:53:25;8.85;;;6.13;;
56045;SDS011;41913;51.030;3.706;2022-07-23T00:55:52;7.00;;;5.55;;
56045;SDS011;41913;51.030;3.706;2022-07-23T00:58:19;5.80;;;5.10;;
56045;SDS011;41913;51.030;3.706;2022-07-23T01:00:50;6.80;;;6.20;;
56045;SDS011;41913;51.030;3.706;2022-07-23T01:03:16;11.88;;;6.55;;
56045;SDS011;41913;51.030;3.706;2022-07-23T01:05:42;6.40;;;5.15;;
56045;SDS011;41913;51.030;3.706;2022-07-23T01:08:08;6.85;;;5.60;;
56045;SDS011;41913;51.030;3.706;2022-07-23T01:10:36;8.43;;;5.78;;
56045;SDS011;41913;51.030;3.706;2022-07-23T01:13:08;7.70;;;5.57;;
56045;SDS011;41913;51.030;3.706;2022-07-23T01:15:35;9.68;;;5.93;;
56045;SDS011;41913;51.030;3.706;2022-07-23T01:18:03;8.90;;;6.00;;
56045;SDS011;41913;51.030;3.706;2022-07-23T01:20:30;10.13;;;6.25;;
56045;SDS011;41913;51.030;3.706;2022-07-23T01:22:58;11.15;;;6.28;;
56045;SDS011;41913;51.030;3.706;2022-07-23T01:25:25;10.35;;;5.45;;
56045;SDS011;41913;51.030;3.706;2022-07-23T01:27:52;7.97;;;6.45;;
56045;SDS011;41913;51.030;3.706;2022-07-23T01:30:18;7.75;;;6.68;;
56045;SDS011;41913;51.030;3.706;2022-07-23T01:32:44;10.75;;;6.32;;
56045;SDS011;41913;51.030;3.706;2022-07-23T01:35:10;6.75;;;6.05;;
56045;SDS011;41913;51.030;3.706;2022-07-23T01:37:38;10.32;;;5.68;;
56045;SDS011;41913;51.030;3.706;2022-07-23T01:40:04;7.75;;;6.47;;
56045;SDS011;41913;51.030;3.706;2022-07-23T01:42:30;6.40;;;5.55;;
56045;SDS011;41913;51.030;3.706;2022-07-23T01:44:56;10.80;;;7.00;;
56045;SDS011;41913;51.030;3.706;2022-07-23T01:47:23;8.18;;;6.57;;
56045;SDS011;41913;51.030;3.706;2022-07-23T01:49:48;15.82;;;7.10;;
56045;SDS011;41913;51.030;3.706;2022-07-23T01:52:14;11.50;;;6.95;;
56045;SDS011;41913;51.030;3.706;2022-07-23T01:54:40;10.75;;;6.57;;
56045;SDS011;41913;51.030;3.706;2022-07-23T01:57:06;6.28;;;5.68;;
56045;SDS011;41913;51.030;3.706;2022-07-23T01:59:32;7.63;;;5.80;;
56045;SDS011;41913;51.030;3.706;2022-07-23T02:01:59;11.50;;;6.70;;
56045;SDS011;41913;51.030;3.706;2022-07-23T02:04:24;8.15;;;6.68;;
56045;SDS011;41913;51.030;3.706;2022-07-23T02:06:52;9.45;;;5.82;;
56045;SDS011;41913;51.030;3.706;2022-07-23T02:09:18;9.15;;;6.47;;
56045;SDS011;41913;51.030;3.706;2022-07-23T02:11:45;8.73;;;6.22;;
56045;SDS011;41913;51.030;3.706;2022-07-23T02:14:11;8.13;;;6.63;;
56045;SDS011;41913;51.030;3.706;2022-07-23T02:16:37;10.45;;;6.07;;
56045;SDS011;41913;51.030;3.706;2022-07-23T02:19:03;11.07;;;7.20;;
56045;SDS011;41913;51.030;3.706;2022-07-23T02:21:29;8.32;;;6.05;;
56045;SDS011;41913;51.030;3.706;2022-07-23T02:23:58;6.95;;;6.10;;
56045;SDS011;41913;51.030;3.706;2022-07-23T02:26:25;11.65;;;6.45;;
56045;SDS011;41913;51.030;3.706;2022-07-23T02:28:50;13.50;;;7.43;;
56045;SDS011;41913;51.030;3.706;2022-07-23T02:31:17;9.43;;;6.95;;
56045;SDS011;41913;51.030;3.706;2022-07-23T02:33:44;7.75;;;5.53;;
56045;SDS011;41913;51.030;3.706;2022-07-23T02:36:10;10.05;;;6.38;;
56045;SDS011;41913;51.030;3.706;2022-07-23T02:38:35;7.47;;;5.97;;
56045;SDS011;41913;51.030;3.706;2022-07-23T02:41:01;9.65;;;6.20;;
56045;SDS011;41913;51.030;3.706;2022-07-23T02:43:27;16.15;;;6.30;;
56045;SDS011;41913;51.030;3.706;2022-07-23T02:45:52;7.63;;;6.45;;
56045;SDS011;41913;51.030;3.706;2022-07-23T02:48:19;7.32;;;6.45;;
56045;SDS011;41913;51.030;3.706;2022-07-23T02:50:46;9.93;;;6.88;;
56045;SDS011;41913;51.030;3.706;2022-07-23T02:53:12;7.65;;;6.95;;
56045;SDS011;41913;51.030;3.706;2022-07-23T02:55:37;6.45;;;5.82;;
56045;SDS011;41913;51.030;3.706;2022-07-23T02:58:03;10.30;;;6.63;;
56045;SDS011;41913;51.030;3.706;2022-07-23T03:00:29;12.15;;;6.72;;
56045;SDS011;41913;51.030;3.706;2022-07-23T03:02:55;10.32;;;6.82;;
56045;SDS011;41913;51.030;3.706;2022-07-23T03:05:20;8.57;;;7.18;;
56045;SDS011;41913;51.030;3.706;2022-07-23T03:07:46;9.13;;;6.80;;
56045;SDS011;41913;51.030;3.706;2022-07-23T03:10:12;8.57;;;6.75;;
56045;SDS011;41913;51.030;3.706;2022-07-23T03:12:37;12.50;;;7.07;;
56045;SDS011;41913;51.030;3.706;2022-07-23T03:15:03;12.63;;;7.35;;
56045;SDS011;41913;51.030;3.706;2022-07-23T03:17:29;12.10;;;6.75;;
56045;SDS011;41913;51.030;3.706;2022-07-23T03:19:56;11.70;;;6.25;;
56045;SDS011;41913;51.030;3.706;2022-07-23T03:22:30;8.30;;;7.22;;
56045;SDS011;41913;51.030;3.706;2022-07-23T03:24:58;7.32;;;6.63;;
56045;SDS011;41913;51.030;3.706;2022-07-23T03:27:26;14.43;;;7.38;;
56045;SDS011;41913;51.030;3.706;2022-07-23T03:30:00;9.05;;;6.50;;
56045;SDS011;41913;51.030;3.706;2022-07-23T03:32:26;9.18;;;7.15;;
56045;SDS011;41913;51.030;3.706;2022-07-23T03:34:53;10.82;;;7.25;;
56045;SDS011;41913;51.030;3.706;2022-07-23T03:37:20;15.05;;;6.45;;
56045;SDS011;41913;51.030;3.706;2022-07-23T03:39:46;7.32;;;6.57;;
56045;SDS011;41913;51.030;3.706;2022-07-23T03:42:13;15.75;;;7.15;;
56045;SDS011;41913;51.030;3.706;2022-07-23T03:44:40;8.80;;;6.75;;
56045;SDS011;41913;51.030;3.706;2022-07-23T03:47:06;12.57;;;7.63;;
56045;SDS011;41913;51.030;3.706;2022-07-23T03:49:34;10.25;;;7.82;;
56045;SDS011;41913;51.030;3.706;2022-07-23T03:52:00;12.20;;;6.88;;
56045;SDS011;41913;51.030;3.706;2022-07-23T03:54:26;7.30;;;6.53;;
56045;SDS011;41913;51.030;3.706;2022-07-23T03:56:53;12.02;;;7.55;;
56045;SDS011;41913;51.030;3.706;2022-07-23T03:59:18;10.80;;;8.02;;
56045;SDS011;41913;51.030;3.706;2022-07-23T04:01:44;10.68;;;7.40;;
56045;SDS011;41913;51.030;3.706;2022-07-23T04:04:10;11.82;;;8.30;;
56045;SDS011;41913;51.030;3.706;2022-07-23T04:06:35;15.10;;;8.95;;
56045;SDS011;41913;51.030;3.706;2022-07-23T04:09:01;11.75;;;7.95;;
56045;SDS011;41913;51.030;3.706;2022-07-23T04:11:27;10.20;;;7.57;;
56045;SDS011;41913;51.030;3.706;2022-07-23T04:13:53;15.45;;;8.45;;
56045;SDS011;41913;51.030;3.706;2022-07-23T04:16:19;9.70;;;8.00;;
56045;SDS011;41913;51.030;3.706;2022-07-23T04:18:44;15.35;;;8.82;;
56045;SDS011;41913;51.030;3.706;2022-07-23T04:21:10;14.65;;;8.65;;
56045;SDS011;41913;51.030;3.706;2022-07-23T04:23:36;14.60;;;9.60;;
56045;SDS011;41913;51.030;3.706;2022-07-23T04:26:01;11.90;;;9.10;;
56045;SDS011;41913;51.030;3.706;2022-07-23T04:28:27;14.65;;;9.05;;
56045;SDS011;41913;51.030;3.706;2022-07-23T04:30:55;9.77;;;8.75;;
56045;SDS011;41913;51.030;3.706;2022-07-23T04:33:24;13.40;;;9.07;;
56045;SDS011;41913;51.030;3.706;2022-07-23T04:35:50;9.63;;;8.68;;
56045;SDS011;41913;51.030;3.706;2022-07-23T04:38:16;16.70;;;8.25;;
56045;SDS011;41913;51.030;3.706;2022-07-23T04:40:41;9.02;;;7.80;;
56045;SDS011;41913;51.030;3.706;2022-07-23T04:43:10;10.30;;;9.25;;
56045;SDS011;41913;51.030;3.706;2022-07-23T04:45:36;10.20;;;7.90;;
56045;SDS011;41913;51.030;3.706;2022-07-23T04:48:02;10.70;;;8.52;;
56045;SDS011;41913;51.030;3.706;2022-07-23T04:50:27;9.02;;;7.38;;
56045;SDS011;41913;51.030;3.706;2022-07-23T04:52:53;10.27;;;7.90;;
56045;SDS011;41913;51.030;3.706;2022-07-23T04:55:19;9.15;;;8.25;;
56045;SDS011;41913;51.030;3.706;2022-07-23T04:57:45;12.43;;;8.95;;
56045;SDS011;41913;51.030;3.706;2022-07-23T05:00:11;9.50;;;8.57;;
56045;SDS011;41913;51.030;3.706;2022-07-23T05:02:39;10.35;;;8.90;;
56045;SDS011;41913;51.030;3.706;2022-07-23T05:05:05;12.70;;;8.15;;
56045;SDS011;41913;51.030;3.706;2022-07-23T05:07:31;12.15;;;8.52;;
56045;SDS011;41913;51.030;3.706;2022-07-23T05:09:58;8.57;;;7.72;;
56045;SDS011;41913;51.030;3.706;2022-07-23T05:12:25;13.93;;;7.75;;
56045;SDS011;41913;51.030;3.706;2022-07-23T05:14:51;10.77;;;8.68;;
56045;SDS011;41913;51.030;3.706;2022-07-23T05:17:19;11.77;;;8.57;;
56045;SDS011;41913;51.030;3.706;2022-07-23T05:19:45;10.25;;;6.88;;
56045;SDS011;41913;51.030;3.706;2022-07-23T05:22:12;7.80;;;7.05;;
56045;SDS011;41913;51.030;3.706;2022-07-23T05:24:38;11.38;;;7.50;;
56045;SDS011;41913;51.030;3.706;2022-07-23T05:27:04;8.27;;;7.05;;
56045;SDS011;41913;51.030;3.706;2022-07-23T05:29:30;14.85;;;7.85;;
56045;SDS011;41913;51.030;3.706;2022-07-23T05:31:55;8.73;;;7.90;;
56045;SDS011;41913;51.030;3.706;2022-07-23T05:34:21;9.85;;;8.52;;
56045;SDS011;41913;51.030;3.706;2022-07-23T05:36:47;9.35;;;8.35;;
56045;SDS011;41913;51.030;3.706;2022-07-23T05:39:13;13.93;;;8.40;;
56045;SDS011;41913;51.030;3.706;2022-07-23T05:41:39;13.23;;;7.75;;
56045;SDS011;41913;51.030;3.706;2022-07-23T05:44:05;8.75;;;7.57;;
56045;SDS011;41913;51.030;3.706;2022-07-23T05:46:30;13.43;;;7.55;;
56045;SDS011;41913;51.030;3.706;2022-07-23T05:48:56;10.95;;;8.55;;
56045;SDS011;41913;51.030;3.706;2022-07-23T05:51:22;9.88;;;7.15;;
56045;SDS011;41913;51.030;3.706;2022-07-23T05:53:48;16.02;;;7.97;;
56045;SDS011;41913;51.030;3.706;2022-07-23T05:56:15;17.38;;;7.53;;
56045;SDS011;41913;51.030;3.706;2022-07-23T05:58:41;10.35;;;8.07;;
56045;SDS011;41913;51.030;3.706;2022-07-23T06:01:07;11.48;;;7.13;;
56045;SDS011;41913;51.030;3.706;2022-07-23T06:03:33;15.43;;;8.20;;
56045;SDS011;41913;51.030;3.706;2022-07-23T06:06:02;10.07;;;8.18;;
56045;SDS011;41913;51.030;3.706;2022-07-23T06:10:56;8.65;;;7.18;;
56045;SDS011;41913;51.030;3.706;2022-07-23T06:13:22;7.93;;;7.13;;
56045;SDS011;41913;51.030;3.706;2022-07-23T06:15:48;9.27;;;6.75;;
56045;SDS011;41913;51.030;3.706;2022-07-23T06:18:14;7.78;;;6.97;;
56045;SDS011;41913;51.030;3.706;2022-07-23T06:20:40;7.82;;;7.00;;
56045;SDS011;41913;51.030;3.706;2022-07-23T06:23:05;10.98;;;6.45;;
56045;SDS011;41913;51.030;3.706;2022-07-23T06:25:32;13.70;;;7.25;;
56045;SDS011;41913;51.030;3.706;2022-07-23T06:27:59;13.00;;;7.18;;
56045;SDS011;41913;51.030;3.706;2022-07-23T06:30:31;9.43;;;6.80;;
56045;SDS011;41913;51.030;3.706;2022-07-23T06:32:57;9.13;;;7.70;;
56045;SDS011;41913;51.030;3.706;2022-07-23T06:35:23;17.88;;;7.20;;
56045;SDS011;41913;51.030;3.706;2022-07-23T06:37:51;10.82;;;6.30;;
56045;SDS011;41913;51.030;3.706;2022-07-23T06:40:17;10.02;;;6.80;;
56045;SDS011;41913;51.030;3.706;2022-07-23T06:42:44;9.30;;;5.93;;
56045;SDS011;41913;51.030;3.706;2022-07-23T06:45:10;6.93;;;6.18;;
56045;SDS011;41913;51.030;3.706;2022-07-23T06:47:37;7.90;;;6.20;;
56045;SDS011;41913;51.030;3.706;2022-07-23T06:50:03;6.57;;;5.63;;
56045;SDS011;41913;51.030;3.706;2022-07-23T06:52:31;9.52;;;6.25;;
56045;SDS011;41913;51.030;3.706;2022-07-23T06:54:57;8.63;;;5.20;;
56045;SDS011;41913;51.030;3.706;2022-07-23T06:57:23;6.20;;;5.70;;
56045;SDS011;41913;51.030;3.706;2022-07-23T06:59:50;6.07;;;5.47;;
56045;SDS011;41913;51.030;3.706;2022-07-23T07:02:16;6.30;;;5.35;;
56045;SDS011;41913;51.030;3.706;2022-07-23T07:04:42;7.28;;;5.40;;
56045;SDS011;41913;51.030;3.706;2022-07-23T07:07:08;9.07;;;6.00;;
56045;SDS011;41913;51.030;3.706;2022-07-23T07:09:34;11.77;;;6.90;;
56045;SDS011;41913;51.030;3.706;2022-07-23T07:11:59;6.38;;;5.75;;
56045;SDS011;41913;51.030;3.706;2022-07-23T07:14:25;6.28;;;5.53;;
56045;SDS011;41913;51.030;3.706;2022-07-23T07:16:52;9.38;;;5.38;;
56045;SDS011;41913;51.030;3.706;2022-07-23T07:19:18;10.02;;;5.90;;
56045;SDS011;41913;51.030;3.706;2022-07-23T07:21:49;11.02;;;6.05;;
56045;SDS011;41913;51.030;3.706;2022-07-23T07:24:17;10.43;;;6.60;;
56045;SDS011;41913;51.030;3.706;2022-07-23T07:26:43;6.75;;;5.05;;
56045;SDS011;41913;51.030;3.706;2022-07-23T07:29:08;5.22;;;4.78;;
56045;SDS011;41913;51.030;3.706;2022-07-23T07:31:40;5.35;;;4.85;;
56045;SDS011;41913;51.030;3.706;2022-07-23T07:34:07;8.60;;;5.88;;
56045;SDS011;41913;51.030;3.706;2022-07-23T07:36:32;6.43;;;5.32;;
56045;SDS011;41913;51.030;3.706;2022-07-23T07:38:59;20.42;;;6.90;;
56045;SDS011;41913;51.030;3.706;2022-07-23T07:41:25;5.47;;;5.00;;
56045;SDS011;41913;51.030;3.706;2022-07-23T07:43:53;7.43;;;4.72;;
56045;SDS011;41913;51.030;3.706;2022-07-23T07:46:19;7.28;;;5.15;;
56045;SDS011;41913;51.030;3.706;2022-07-23T07:48:45;5.72;;;4.93;;
56045;SDS011;41913;51.030;3.706;2022-07-23T07:51:12;6.55;;;5.47;;
56045;SDS011;41913;51.030;3.706;2022-07-23T07:53:37;9.48;;;5.53;;
56045;SDS011;41913;51.030;3.706;2022-07-23T07:56:04;6.85;;;5.82;;
56045;SDS011;41913;51.030;3.706;2022-07-23T07:58:30;8.15;;;5.90;;
56045;SDS011;41913;51.030;3.706;2022-07-23T08:00:57;7.70;;;5.97;;
56045;SDS011;41913;51.030;3.706;2022-07-23T08:03:26;6.43;;;5.68;;
56045;SDS011;41913;51.030;3.706;2022-07-23T08:05:52;6.13;;;5.53;;
56045;SDS011;41913;51.030;3.706;2022-07-23T08:08:18;11.75;;;6.20;;
56045;SDS011;41913;51.030;3.706;2022-07-23T08:10:43;8.05;;;6.03;;
56045;SDS011;41913;51.030;3.706;2022-07-23T08:15:45;7.38;;;6.13;;
56045;SDS011;41913;51.030;3.706;2022-07-23T08:18:11;10.50;;;5.88;;
56045;SDS011;41913;51.030;3.706;2022-07-23T08:20:38;11.43;;;6.70;;
56045;SDS011;41913;51.030;3.706;2022-07-23T08:23:09;9.65;;;7.05;;
56045;SDS011;41913;51.030;3.706;2022-07-23T08:25:40;5.50;;;5.10;;
56045;SDS011;41913;51.030;3.706;2022-07-23T08:28:07;9.35;;;5.50;;
56045;SDS011;41913;51.030;3.706;2022-07-23T08:30:35;5.90;;;5.40;;
56045;SDS011;41913;51.030;3.706;2022-07-23T08:33:06;5.30;;;4.75;;
56045;SDS011;41913;51.030;3.706;2022-07-23T08:35:43;5.97;;;5.38;;
56045;SDS011;41913;51.030;3.706;2022-07-23T08:38:13;6.63;;;5.45;;
56045;SDS011;41913;51.030;3.706;2022-07-23T08:40:40;5.10;;;4.70;;
56045;SDS011;41913;51.030;3.706;2022-07-23T08:43:11;5.50;;;5.00;;
56045;SDS011;41913;51.030;3.706;2022-07-23T08:45:39;5.93;;;5.32;;
56045;SDS011;41913;51.030;3.706;2022-07-23T08:48:12;8.38;;;5.13;;
56045;SDS011;41913;51.030;3.706;2022-07-23T08:50:44;5.70;;;5.30;;
56045;SDS011;41913;51.030;3.706;2022-07-23T08:53:17;6.75;;;6.13;;
56045;SDS011;41913;51.030;3.706;2022-07-23T08:55:51;9.18;;;5.90;;
56045;SDS011;41913;51.030;3.706;2022-07-23T08:58:18;10.05;;;5.70;;
56045;SDS011;41913;51.030;3.706;2022-07-23T09:00:47;5.82;;;5.28;;
56045;SDS011;41913;51.030;3.706;2022-07-23T09:03:19;8.20;;;4.75;;
56045;SDS011;41913;51.030;3.706;2022-07-23T09:05:46;4.95;;;4.55;;
56045;SDS011;41913;51.030;3.706;2022-07-23T09:11:00;5.28;;;4.38;;
56045;SDS011;41913;51.030;3.706;2022-07-23T09:13:30;4.00;;;3.75;;
56045;SDS011;41913;51.030;3.706;2022-07-23T09:16:04;3.53;;;3.25;;
56045;SDS011;41913;51.030;3.706;2022-07-23T09:18:39;5.00;;;4.60;;
56045;SDS011;41913;51.030;3.706;2022-07-23T09:21:21;4.53;;;4.00;;
56045;SDS011;41913;51.030;3.706;2022-07-23T09:23:54;4.15;;;3.72;;
56045;SDS011;41913;51.030;3.706;2022-07-23T09:26:36;4.05;;;3.03;;
56045;SDS011;41913;51.030;3.706;2022-07-23T09:31:54;3.00;;;2.80;;
56045;SDS011;41913;51.030;3.706;2022-07-23T09:34:25;5.75;;;2.42;;
56045;SDS011;41913;51.030;3.706;2022-07-23T09:36:57;3.13;;;2.83;;
56045;SDS011;41913;51.030;3.706;2022-07-23T09:39:33;4.25;;;2.95;;
56045;SDS011;41913;51.030;3.706;2022-07-23T09:44:51;4.18;;;3.75;;
56045;SDS011;41913;51.030;3.706;2022-07-23T09:47:22;4.18;;;3.88;;
56045;SDS011;41913;51.030;3.706;2022-07-23T09:50:08;4.45;;;3.38;;
56045;SDS011;41913;51.030;3.706;2022-07-23T09:52:45;2.78;;;2.58;;
56045;SDS011;41913;51.030;3.706;2022-07-23T09:55:15;4.22;;;2.95;;
56045;SDS011;41913;51.030;3.706;2022-07-23T09:57:45;4.28;;;2.35;;
56045;SDS011;41913;51.030;3.706;2022-07-23T10:00:30;5.45;;;3.65;;
56045;SDS011;41913;51.030;3.706;2022-07-23T10:02:57;5.30;;;3.15;;
56045;SDS011;41913;51.030;3.706;2022-07-23T10:05:24;2.85;;;2.65;;
56045;SDS011;41913;51.030;3.706;2022-07-23T10:07:52;3.50;;;2.53;;
56045;SDS011;41913;51.030;3.706;2022-07-23T10:10:19;2.58;;;2.20;;
56045;SDS011;41913;51.030;3.706;2022-07-23T10:12:47;3.17;;;2.45;;
56045;SDS011;41913;51.030;3.706;2022-07-23T10:15:16;3.17;;;2.90;;
56045;SDS011;41913;51.030;3.706;2022-07-23T10:17:43;3.55;;;2.67;;
56045;SDS011;41913;51.030;3.706;2022-07-23T10:20:09;2.92;;;2.72;;
56045;SDS011;41913;51.030;3.706;2022-07-23T10:25:18;7.18;;;3.00;;
56045;SDS011;41913;51.030;3.706;2022-07-23T10:27:59;2.95;;;2.45;;
56045;SDS011;41913;51.030;3.706;2022-07-23T10:30:51;2.47;;;2.28;;
56045;SDS011;41913;51.030;3.706;2022-07-23T10:38:30;2.97;;;2.53;;
56045;SDS011;41913;51.030;3.706;2022-07-23T10:41:04;1.95;;;1.77;;
56045;SDS011;41913;51.030;3.706;2022-07-23T10:43:30;2.03;;;1.70;;
56045;SDS011;41913;51.030;3.706;2022-07-23T10:46:20;3.47;;;2.03;;
56045;SDS011;41913;51.030;3.706;2022-07-23T10:55:38;2.90;;;2.63;;
56045;SDS011;41913;51.030;3.706;2022-07-23T10:57:46;2.65;;;2.33;;
56045;SDS011;41913;51.030;3.706;2022-07-23T11:00:14;3.63;;;2.38;;
56045;SDS011;41913;51.030;3.706;2022-07-23T11:02:44;3.00;;;1.85;;
56045;SDS011;41913;51.030;3.706;2022-07-23T11:05:16;1.45;;;1.33;;
56045;SDS011;41913;51.030;3.706;2022-07-23T11:10:36;3.17;;;2.15;;
56045;SDS011;41913;51.030;3.706;2022-07-23T11:13:51;1.88;;;1.77;;
56045;SDS011;41913;51.030;3.706;2022-07-23T11:31:56;2.17;;;1.80;;
56045;SDS011;41913;51.030;3.706;2022-07-23T11:34:33;2.05;;;1.95;;
56045;SDS011;41913;51.030;3.706;2022-07-23T11:37:07;2.35;;;2.20;;
56045;SDS011;41913;51.030;3.706;2022-07-23T11:39:53;4.57;;;3.08;;
56045;SDS011;41913;51.030;3.706;2022-07-23T11:42:20;3.30;;;1.92;;
56045;SDS011;41913;51.030;3.706;2022-07-23T11:44:49;1.98;;;1.88;;
56045;SDS011;41913;51.030;3.706;2022-07-23T11:47:20;2.25;;;2.10;;
56045;SDS011;41913;51.030;3.706;2022-07-23T11:49:52;2.53;;;2.33;;
56045;SDS011;41913;51.030;3.706;2022-07-23T11:52:23;3.28;;;1.75;;
56045;SDS011;41913;51.030;3.706;2022-07-23T11:54:51;1.58;;;1.48;;
56045;SDS011;41913;51.030;3.706;2022-07-23T11:57:28;2.08;;;1.67;;
56045;SDS011;41913;51.030;3.706;2022-07-23T12:02:25;3.38;;;3.08;;
56045;SDS011;41913;51.030;3.706;2022-07-23T12:04:52;6.55;;;2.58;;
56045;SDS011;41913;51.030;3.706;2022-07-23T12:10:34;1.73;;;1.60;;
56045;SDS011;41913;51.030;3.706;2022-07-23T12:13:00;2.05;;;1.95;;
56045;SDS011;41913;51.030;3.706;2022-07-23T12:15:40;4.85;;;2.97;;
56045;SDS011;41913;51.030;3.706;2022-07-23T12:18:12;2.33;;;2.03;;
56045;SDS011;41913;51.030;3.706;2022-07-23T12:20:44;2.10;;;1.77;;
56045;SDS011;41913;51.030;3.706;2022-07-23T12:23:13;2.63;;;2.38;;
56045;SDS011;41913;51.030;3.706;2022-07-23T12:25:46;1.55;;;1.52;;
56045;SDS011;41913;51.030;3.706;2022-07-23T12:28:18;2.92;;;2.42;;
56045;SDS011;41913;51.030;3.706;2022-07-23T12:30:47;4.28;;;3.00;;
56045;SDS011;41913;51.030;3.706;2022-07-23T12:33:22;2.53;;;2.35;;
56045;SDS011;41913;51.030;3.706;2022-07-23T12:35:55;3.47;;;2.53;;
56045;SDS011;41913;51.030;3.706;2022-07-23T12:38:23;2.92;;;2.67;;
56045;SDS011;41913;51.030;3.706;2022-07-23T12:40:52;6.15;;;3.25;;
56045;SDS011;41913;51.030;3.706;2022-07-23T12:48:39;2.70;;;1.95;;
56045;SDS011;41913;51.030;3.706;2022-07-23T12:53:52;4.28;;;2.38;;
56045;SDS011;41913;51.030;3.706;2022-07-23T12:56:27;5.72;;;2.10;;
56045;SDS011;41913;51.030;3.706;2022-07-23T13:01:33;2.60;;;2.33;;
56045;SDS011;41913;51.030;3.706;2022-07-23T13:04:17;1.92;;;1.65;;
56045;SDS011;41913;51.030;3.706;2022-07-23T13:06:45;2.08;;;1.90;;
56045;SDS011;41913;51.030;3.706;2022-07-23T13:09:22;2.33;;;1.73;;
56045;SDS011;41913;51.030;3.706;2022-07-23T13:11:53;6.00;;;2.40;;
56045;SDS011;41913;51.030;3.706;2022-07-23T13:14:20;2.38;;;2.17;;
56045;SDS011;41913;51.030;3.706;2022-07-23T13:16:47;2.22;;;1.98;;
56045;SDS011;41913;51.030;3.706;2022-07-23T13:19:18;4.05;;;2.60;;
56045;SDS011;41913;51.030;3.706;2022-07-23T13:21:48;2.80;;;2.40;;
56045;SDS011;41913;51.030;3.706;2022-07-23T13:24:15;2.38;;;2.28;;
56045;SDS011;41913;51.030;3.706;2022-07-23T13:26:47;2.50;;;2.28;;
56045;SDS011;41913;51.030;3.706;2022-07-23T13:29:15;3.75;;;2.78;;
56045;SDS011;41913;51.030;3.706;2022-07-23T13:31:41;7.82;;;3.08;;
56045;SDS011;41913;51.030;3.706;2022-07-23T13:34:07;4.40;;;2.38;;
56045;SDS011;41913;51.030;3.706;2022-07-23T13:36:34;5.93;;;2.40;;
56045;SDS011;41913;51.030;3.706;2022-07-23T13:39:00;2.42;;;2.28;;
56045;SDS011;41913;51.030;3.706;2022-07-23T13:41:27;4.15;;;2.67;;
56045;SDS011;41913;51.030;3.706;2022-07-23T13:43:54;3.50;;;2.83;;
56045;SDS011;41913;51.030;3.706;2022-07-23T13:46:20;3.60;;;3.40;;
56045;SDS011;41913;51.030;3.706;2022-07-23T13:48:46;4.93;;;3.50;;
56045;SDS011;41913;51.030;3.706;2022-07-23T13:51:12;4.38;;;3.08;;
56045;SDS011;41913;51.030;3.706;2022-07-23T13:53:38;6.28;;;2.72;;
56045;SDS011;41913;51.030;3.706;2022-07-23T13:56:06;6.45;;;3.83;;
56045;SDS011;41913;51.030;3.706;2022-07-23T13:58:32;8.23;;;3.70;;
56045;SDS011;41913;51.030;3.706;2022-07-23T14:00:57;3.00;;;2.83;;
56045;SDS011;41913;51.030;3.706;2022-07-23T14:03:23;2.13;;;2.03;;
56045;SDS011;41913;51.030;3.706;2022-07-23T14:05:50;3.28;;;2.97;;
56045;SDS011;41913;51.030;3.706;2022-07-23T14:08:17;5.75;;;3.10;;
56045;SDS011;41913;51.030;3.706;2022-07-23T14:10:44;3.33;;;2.88;;
56045;SDS011;41913;51.030;3.706;2022-07-23T14:13:10;3.45;;;2.90;;
56045;SDS011;41913;51.030;3.706;2022-07-23T14:15:35;4.35;;;3.10;;
56045;SDS011;41913;51.030;3.706;2022-07-23T14:18:03;5.82;;;2.90;;
56045;SDS011;41913;51.030;3.706;2022-07-23T14:20:29;6.63;;;3.38;;
56045;SDS011;41913;51.030;3.706;2022-07-23T14:22:55;4.20;;;3.83;;
56045;SDS011;41913;51.030;3.706;2022-07-23T14:25:23;5.18;;;3.15;;
56045;SDS011;41913;51.030;3.706;2022-07-23T14:27:49;4.78;;;3.20;;
56045;SDS011;41913;51.030;3.706;2022-07-23T14:30:15;3.90;;;3.55;;
56045;SDS011;41913;51.030;3.706;2022-07-23T14:32:40;7.03;;;3.17;;
56045;SDS011;41913;51.030;3.706;2022-07-23T14:35:06;3.83;;;3.47;;
56045;SDS011;41913;51.030;3.706;2022-07-23T14:37:32;4.90;;;4.00;;
56045;SDS011;41913;51.030;3.706;2022-07-23T14:39:58;3.03;;;2.72;;
56045;SDS011;41913;51.030;3.706;2022-07-23T14:42:24;3.63;;;3.33;;
56045;SDS011;41913;51.030;3.706;2022-07-23T14:44:50;3.45;;;2.97;;
56045;SDS011;41913;51.030;3.706;2022-07-23T14:47:16;2.75;;;2.55;;
56045;SDS011;41913;51.030;3.706;2022-07-23T14:49:41;7.03;;;3.88;;
56045;SDS011;41913;51.030;3.706;2022-07-23T14:52:07;3.55;;;3.35;;
56045;SDS011;41913;51.030;3.706;2022-07-23T14:54:34;5.03;;;3.35;;
56045;SDS011;41913;51.030;3.706;2022-07-23T14:57:00;3.55;;;2.50;;
56045;SDS011;41913;51.030;3.706;2022-07-23T14:59:27;3.50;;;3.30;;
56045;SDS011;41913;51.030;3.706;2022-07-23T15:01:53;3.08;;;2.80;;
56045;SDS011;41913;51.030;3.706;2022-07-23T15:04:19;4.53;;;4.13;;
56045;SDS011;41913;51.030;3.706;2022-07-23T15:06:45;3.80;;;3.58;;
56045;SDS011;41913;51.030;3.706;2022-07-23T15:09:11;5.43;;;3.60;;
56045;SDS011;41913;51.030;3.706;2022-07-23T15:11:37;3.40;;;3.20;;
56045;SDS011;41913;51.030;3.706;2022-07-23T15:14:06;3.85;;;2.88;;
56045;SDS011;41913;51.030;3.706;2022-07-23T15:16:35;3.60;;;3.22;;
56045;SDS011;41913;51.030;3.706;2022-07-23T15:19:02;7.63;;;3.80;;
56045;SDS011;41913;51.030;3.706;2022-07-23T15:21:29;4.35;;;4.00;;
56045;SDS011;41913;51.030;3.706;2022-07-23T15:23:58;6.50;;;3.78;;
56045;SDS011;41913;51.030;3.706;2022-07-23T15:26:25;5.30;;;4.32;;
56045;SDS011;41913;51.030;3.706;2022-07-23T15:28:52;7.00;;;4.22;;
56045;SDS011;41913;51.030;3.706;2022-07-23T15:31:18;4.13;;;3.83;;
56045;SDS011;41913;51.030;3.706;2022-07-23T15:33:44;4.55;;;4.10;;
56045;SDS011;41913;51.030;3.706;2022-07-23T15:36:09;5.05;;;4.57;;
56045;SDS011;41913;51.030;3.706;2022-07-23T15:38:41;9.93;;;5.28;;
56045;SDS011;41913;51.030;3.706;2022-07-23T15:41:06;5.35;;;4.95;;
56045;SDS011;41913;51.030;3.706;2022-07-23T15:43:34;4.68;;;4.28;;
56045;SDS011;41913;51.030;3.706;2022-07-23T15:45:59;4.82;;;4.35;;
56045;SDS011;41913;51.030;3.706;2022-07-23T15:48:25;7.63;;;4.35;;
56045;SDS011;41913;51.030;3.706;2022-07-23T15:50:51;4.95;;;4.55;;
56045;SDS011;41913;51.030;3.706;2022-07-23T15:53:18;6.70;;;3.83;;